SCTE 240500Z VRB02KT 9999 BKN050 05/05 Q1022 NOSIG